createdAt,value
2018-06-08T00:00:48.157Z,27.67
2018-06-08T00:02:51.296Z,24.90
2018-06-08T00:04:54.444Z,30.50
2018-06-08T00:06:57.571Z,32.73
2018-06-08T00:09:00.748Z,32.27
2018-06-08T00:11:03.896Z,29.00
2018-06-08T00:13:07.130Z,30.87
2018-06-08T00:15:10.289Z,31.17
2018-06-08T00:17:13.445Z,30.67
2018-06-08T00:19:16.576Z,28.70
2018-06-08T00:21:19.724Z,38.80
2018-06-08T00:23:22.855Z,26.50
2018-06-08T00:25:26.051Z,28.30
2018-06-08T00:27:29.299Z,32.17
2018-06-08T00:29:32.462Z,28.90
2018-06-08T00:31:35.607Z,35.87
2018-06-08T00:33:39.104Z,28.83
2018-06-08T00:35:42.336Z,31.50
2018-06-08T00:37:45.505Z,40.70
2018-06-08T00:39:48.732Z,34.23
2018-06-08T00:41:51.916Z,28.30
2018-06-08T00:43:55.093Z,29.87
2018-06-08T00:45:58.270Z,29.03
2018-06-08T00:48:01.412Z,29.30
2018-06-08T00:50:04.602Z,32.97
2018-06-08T00:52:07.733Z,30.10
2018-06-08T00:54:10.869Z,43.83
2018-06-08T00:56:25.496Z,49.07
2018-06-08T00:58:28.626Z,32.27
2018-06-08T01:00:31.761Z,33.13
2018-06-08T01:02:34.893Z,34.37
2018-06-08T01:04:38.093Z,26.83
2018-06-08T01:06:41.934Z,33.30
2018-06-08T01:08:45.059Z,36.97
2018-06-08T01:10:48.236Z,31.40
2018-06-08T01:12:51.367Z,41.37
2018-06-08T01:14:54.504Z,32.93
2018-06-08T01:16:58.386Z,32.17
2018-06-08T01:19:01.512Z,37.43
2018-06-08T01:21:04.657Z,30.53
2018-06-08T01:23:07.769Z,36.23
2018-06-08T01:25:10.937Z,38.10
2018-06-08T01:27:14.095Z,37.17
2018-06-08T01:29:17.244Z,42.63
2018-06-08T01:31:20.402Z,36.87
2018-06-08T01:33:23.528Z,43.57
2018-06-08T01:35:26.696Z,40.27
2018-06-08T01:37:30.141Z,42.60
2018-06-08T01:39:33.278Z,46.33
2018-06-08T01:41:36.625Z,46.27
2018-06-08T01:43:39.761Z,48.80
2018-06-08T01:45:42.933Z,44.97
2018-06-08T01:47:46.084Z,48.13
2018-06-08T01:49:49.239Z,47.33
2018-06-08T01:51:52.393Z,50.37
2018-06-08T01:53:56.165Z,52.30
2018-06-08T01:55:59.339Z,47.10
2018-06-08T01:58:03.184Z,59.57
2018-06-08T02:00:06.372Z,52.87
2018-06-08T02:02:09.520Z,51.67
2018-06-08T02:04:12.684Z,48.80
2018-06-08T02:06:15.872Z,52.53
2018-06-08T02:08:19.025Z,50.00
2018-06-08T02:10:22.206Z,60.10
2018-06-08T02:12:25.348Z,57.30
2018-06-08T02:14:28.592Z,62.40
2018-06-08T02:16:31.752Z,54.10
2018-06-08T02:18:34.921Z,65.20
2018-06-08T02:20:38.105Z,61.93
2018-06-08T02:22:41.271Z,62.63
2018-06-08T02:24:44.420Z,58.07
2018-06-08T02:26:47.594Z,61.77
2018-06-08T02:28:50.747Z,59.10
2018-06-08T02:30:53.921Z,59.90
2018-06-08T02:32:57.121Z,56.13
2018-06-08T02:35:00.268Z,57.43
2018-06-08T02:37:03.434Z,65.47
2018-06-08T02:39:08.259Z,63.80
2018-06-08T02:41:11.429Z,60.10
2018-06-08T02:43:14.602Z,56.90
2018-06-08T02:45:17.778Z,68.00
2018-06-08T02:47:21.003Z,68.80
2018-06-08T02:49:24.152Z,73.97
2018-06-08T02:51:27.634Z,64.70
2018-06-08T02:53:30.772Z,58.10
2018-06-08T02:55:33.900Z,64.33
2018-06-08T02:57:37.048Z,62.97
2018-06-08T02:59:40.197Z,58.17
2018-06-08T03:01:43.349Z,65.93
2018-06-08T03:03:46.491Z,71.23
2018-06-08T03:05:49.648Z,75.17
2018-06-08T03:07:52.790Z,58.60
2018-06-08T03:09:55.945Z,70.10
2018-06-08T03:11:59.130Z,65.97
2018-06-08T03:14:02.236Z,63.00
2018-06-08T03:16:05.633Z,74.90
2018-06-08T03:18:09.437Z,58.40
2018-06-08T03:20:12.589Z,73.10
2018-06-08T03:22:15.800Z,69.70
2018-06-08T03:24:18.936Z,62.07
2018-06-08T03:26:22.086Z,73.03
2018-06-08T03:28:25.242Z,66.13
2018-06-08T03:30:28.384Z,64.30
2018-06-08T03:32:31.572Z,70.20
2018-06-08T03:34:34.720Z,75.40
2018-06-08T03:36:37.877Z,64.70
2018-06-08T03:38:41.471Z,74.07
2018-06-08T03:40:44.622Z,62.17
2018-06-08T03:42:47.772Z,72.50
2018-06-08T03:44:50.935Z,68.43
2018-06-08T03:46:54.111Z,72.33
2018-06-08T03:48:57.303Z,68.73
2018-06-08T03:51:00.404Z,67.53
2018-06-08T03:53:03.577Z,65.00
2018-06-08T03:55:06.730Z,75.17
2018-06-08T03:57:09.888Z,80.27
2018-06-08T03:59:13.027Z,68.50
2018-06-08T04:01:16.192Z,62.83
2018-06-08T04:03:19.336Z,67.37
2018-06-08T04:05:23.362Z,70.70
2018-06-08T04:07:26.535Z,77.63
2018-06-08T04:09:29.689Z,63.77
2018-06-08T04:11:33.353Z,77.90
2018-06-08T04:13:37.489Z,66.50
2018-06-08T04:15:40.649Z,69.03
2018-06-08T04:17:43.791Z,66.60
2018-06-08T04:19:46.944Z,74.10
2018-06-08T04:21:50.179Z,70.43
2018-06-08T04:23:53.332Z,76.70
2018-06-08T04:25:56.471Z,70.03
2018-06-08T04:27:59.632Z,72.43
2018-06-08T04:30:03.776Z,73.83
2018-06-08T04:32:06.948Z,67.63
2018-06-08T04:34:10.116Z,93.40
2018-06-08T04:36:13.271Z,119.57
2018-06-08T04:38:16.438Z,106.03
2018-06-08T04:40:19.572Z,93.53
2018-06-08T04:42:22.735Z,108.93
2018-06-08T04:44:25.867Z,105.83
2018-06-08T04:46:29.016Z,108.17
2018-06-08T04:48:32.184Z,101.70
2018-06-08T04:50:35.308Z,120.30
2018-06-08T04:52:38.481Z,115.00
2018-06-08T04:54:41.647Z,114.00
2018-06-08T04:56:44.800Z,105.70
2018-06-08T04:58:47.960Z,105.50
2018-06-08T05:00:51.092Z,103.30
2018-06-08T05:02:54.261Z,83.87
2018-06-08T05:04:57.404Z,88.67
2018-06-08T05:07:00.555Z,89.63
2018-06-08T05:09:04.473Z,89.47
2018-06-08T05:11:07.596Z,98.70
2018-06-08T05:13:10.739Z,92.30
2018-06-08T05:15:13.867Z,85.93
2018-06-08T05:17:17.027Z,82.90
2018-06-08T05:19:20.181Z,85.07
2018-06-08T05:21:23.420Z,83.93
2018-06-08T05:23:26.570Z,85.13
2018-06-08T05:25:29.693Z,93.53
2018-06-08T05:27:32.839Z,79.83
2018-06-08T05:29:35.967Z,85.60
2018-06-08T05:31:39.092Z,84.60
2018-06-08T05:33:42.244Z,84.27
2018-06-08T05:35:45.375Z,100.63
2018-06-08T05:37:48.653Z,75.63
2018-06-08T05:39:51.800Z,95.43
2018-06-08T05:41:54.956Z,75.57
2018-06-08T05:43:58.104Z,77.90
2018-06-08T05:46:01.273Z,80.27
2018-06-08T05:48:04.204Z,69.57
2018-06-08T05:50:07.491Z,64.93
2018-06-08T05:52:10.639Z,85.97
2018-06-08T05:54:13.825Z,67.17
2018-06-08T05:56:16.969Z,69.03
2018-06-08T05:58:20.179Z,76.10
2018-06-08T06:00:23.313Z,70.27
2018-06-08T06:02:26.473Z,92.77
2018-06-08T06:04:29.663Z,77.20
2018-06-08T06:06:32.820Z,75.20
2018-06-08T06:08:35.773Z,74.10
2018-06-08T06:10:38.944Z,90.23
2018-06-08T06:12:42.081Z,70.80
2018-06-08T06:14:45.232Z,74.27
2018-06-08T06:16:48.368Z,67.57
2018-06-08T06:18:51.523Z,74.00
2018-06-08T06:20:54.703Z,91.47
2018-06-08T06:22:58.001Z,68.77
2018-06-08T06:25:01.557Z,77.43
2018-06-08T06:27:04.721Z,70.97
2018-06-08T06:29:07.896Z,75.87
2018-06-08T06:31:11.044Z,74.93
2018-06-08T06:33:14.288Z,70.40
2018-06-08T06:35:17.440Z,74.43
2018-06-08T06:37:20.406Z,68.07
2018-06-08T06:39:23.571Z,69.97
2018-06-08T06:41:26.735Z,65.10
2018-06-08T06:43:32.711Z,68.80
2018-06-08T06:45:35.952Z,63.60
2018-06-08T06:47:39.129Z,73.00
2018-06-08T06:49:42.071Z,61.93
2018-06-08T06:51:45.268Z,64.00
2018-06-08T06:53:49.055Z,63.47
2018-06-08T06:55:52.201Z,62.67
2018-06-08T06:57:55.386Z,69.00
2018-06-08T06:59:58.527Z,73.60
2018-06-08T07:02:01.769Z,65.00
2018-06-08T07:04:04.969Z,65.33
2018-06-08T07:06:08.167Z,68.00
2018-06-08T07:08:11.357Z,66.17
2018-06-08T07:10:14.527Z,69.53
2018-06-08T07:12:18.154Z,68.57
2018-06-08T07:14:21.384Z,74.43
2018-06-08T07:16:24.731Z,75.40
2018-06-08T07:18:28.090Z,70.90
2018-06-08T07:20:31.318Z,81.80
2018-06-08T07:22:35.440Z,65.57
2018-06-08T07:24:39.092Z,67.90
2018-06-08T07:26:42.682Z,57.17
2018-06-08T07:28:46.017Z,57.33
2018-06-08T07:30:49.271Z,64.40
2018-06-08T07:32:52.466Z,58.97
2018-06-08T07:34:55.760Z,64.30
2018-06-08T07:36:58.891Z,67.57
2018-06-08T07:39:01.857Z,62.73
2018-06-08T07:41:05.048Z,67.27
2018-06-08T07:43:08.593Z,62.53
2018-06-08T07:45:11.770Z,60.30
2018-06-08T07:47:14.997Z,58.53
2018-06-08T07:49:18.245Z,56.93
2018-06-08T07:51:21.389Z,64.00
2018-06-08T07:53:24.610Z,56.00
2018-06-08T07:55:28.232Z,61.67
2018-06-08T07:57:31.691Z,58.17
2018-06-08T07:59:35.252Z,51.23
2018-06-08T08:01:38.528Z,56.20
2018-06-08T08:03:41.751Z,63.37
2018-06-08T08:05:44.671Z,57.40
2018-06-08T08:07:47.900Z,64.90
2018-06-08T08:09:51.036Z,54.27
2018-06-08T08:11:54.176Z,69.20
2018-06-08T08:13:57.311Z,69.93
2018-06-08T08:16:00.435Z,57.27
2018-06-08T08:18:03.571Z,66.53
2018-06-08T08:20:06.695Z,70.43
2018-06-08T08:22:09.815Z,58.27
2018-06-08T08:24:13.191Z,69.33
2018-06-08T08:26:16.444Z,60.00
2018-06-08T08:28:19.588Z,56.00
2018-06-08T08:30:22.479Z,63.93
2018-06-08T08:32:26.441Z,65.30
2018-06-08T08:34:29.624Z,59.50
2018-06-08T08:36:34.216Z,67.17
2018-06-08T08:38:37.337Z,68.00
2018-06-08T08:40:40.546Z,61.57
2018-06-08T08:42:43.688Z,68.30
2018-06-08T08:44:46.888Z,65.53
2018-06-08T08:46:50.035Z,74.60
2018-06-08T08:48:53.176Z,89.53
2018-06-08T08:50:56.420Z,83.23
2018-06-08T08:52:59.668Z,66.10
2018-06-08T08:55:02.825Z,66.33
2018-06-08T08:57:06.156Z,71.43
2018-06-08T08:59:09.282Z,65.83
2018-06-08T09:01:12.427Z,72.07
2018-06-08T09:03:15.465Z,64.73
2018-06-08T09:05:18.603Z,67.43
2018-06-08T09:07:21.741Z,77.43
2018-06-08T09:09:24.875Z,65.77
2018-06-08T09:11:28.032Z,73.73
2018-06-08T09:13:31.148Z,74.97
2018-06-08T09:15:34.289Z,71.83
2018-06-08T09:17:37.420Z,69.07
2018-06-08T09:19:40.569Z,68.87
2018-06-08T09:21:43.698Z,81.90
2018-06-08T09:23:46.807Z,77.60
2018-06-08T09:25:49.958Z,83.83
2018-06-08T09:27:53.098Z,85.70
2018-06-08T09:29:56.245Z,76.93
2018-06-08T09:31:59.376Z,75.90
2018-06-08T09:34:02.516Z,75.50
2018-06-08T09:36:05.731Z,73.20
2018-06-08T09:38:08.938Z,75.33
2018-06-08T09:40:12.098Z,72.63
2018-06-08T09:42:15.240Z,72.23
2018-06-08T09:44:18.200Z,76.00
2018-06-08T09:46:21.366Z,84.23
2018-06-08T09:48:24.527Z,62.07
2018-06-08T09:50:27.733Z,69.27
2018-06-08T09:52:30.860Z,67.77
2018-06-08T09:54:34.006Z,66.57
2018-06-08T09:56:37.135Z,72.00
2018-06-08T09:58:41.227Z,67.63
2018-06-08T10:00:44.956Z,66.60
2018-06-08T10:02:48.133Z,82.87
2018-06-08T10:04:51.247Z,65.00
2018-06-08T10:06:54.411Z,77.40
2018-06-08T10:08:57.545Z,70.97
2018-06-08T10:11:00.667Z,66.10
2018-06-08T10:13:03.809Z,79.73
2018-06-08T10:15:07.133Z,76.30
2018-06-08T10:17:10.275Z,75.27
2018-06-08T10:19:13.412Z,75.50
2018-06-08T10:21:16.528Z,70.40
2018-06-08T10:23:19.663Z,73.83
2018-06-08T10:25:22.784Z,71.20
2018-06-08T10:27:25.700Z,67.70
2018-06-08T10:29:28.868Z,70.77
2018-06-08T10:31:32.008Z,77.33
2018-06-08T10:33:35.696Z,83.43
2018-06-08T10:35:38.812Z,87.13
2018-06-08T10:37:41.940Z,74.83
2018-06-08T10:39:45.114Z,94.43
2018-06-08T10:41:48.041Z,84.03
2018-06-08T10:43:51.199Z,88.73
2018-06-08T10:45:54.336Z,89.63
2018-06-08T10:47:58.355Z,80.90
2018-06-08T10:50:01.276Z,86.13
2018-06-08T10:52:04.424Z,93.10
2018-06-08T10:54:07.560Z,89.20
2018-06-08T10:56:10.703Z,88.00
2018-06-08T10:58:13.859Z,92.50
2018-06-08T11:00:17.004Z,88.13
2018-06-08T11:02:20.156Z,97.30
2018-06-08T11:04:23.310Z,91.60
2018-06-08T11:06:26.444Z,97.07
2018-06-08T11:08:30.381Z,94.07
2018-06-08T11:10:33.525Z,106.07
2018-06-08T11:12:36.680Z,103.00
2018-06-08T11:14:39.835Z,112.33
2018-06-08T11:16:43.056Z,107.43
2018-06-08T11:18:46.220Z,99.03
2018-06-08T11:20:49.368Z,102.40
2018-06-08T11:22:52.560Z,109.57
2018-06-08T11:24:55.732Z,101.53
2018-06-08T11:26:58.917Z,112.67
2018-06-08T11:29:02.057Z,121.47
2018-06-08T11:31:05.215Z,110.03
2018-06-08T11:33:09.276Z,126.53
2018-06-08T11:35:12.413Z,116.93
2018-06-08T11:37:15.561Z,116.37
2018-06-08T11:39:18.722Z,127.63
2018-06-08T11:41:21.858Z,115.77
2018-06-08T11:43:24.992Z,122.20
2018-06-08T11:45:28.152Z,144.10
2018-06-08T11:47:31.388Z,149.57
2018-06-08T11:49:34.865Z,145.47
2018-06-08T11:51:37.988Z,131.73
2018-06-08T11:53:42.019Z,137.10
2018-06-08T11:55:45.152Z,146.13
2018-06-08T11:57:48.275Z,122.07
2018-06-08T11:59:51.420Z,125.83
2018-06-08T12:01:54.580Z,143.00
2018-06-08T12:03:57.696Z,133.40
2018-06-08T12:06:00.836Z,125.93
2018-06-08T12:08:04.053Z,127.53
2018-06-08T12:10:07.271Z,144.43
2018-06-08T12:12:10.420Z,134.70
2018-06-08T12:14:13.604Z,137.33
2018-06-08T12:16:16.797Z,124.23
2018-06-08T12:18:20.029Z,110.57
2018-06-08T12:20:23.171Z,133.93
2018-06-08T12:22:26.295Z,131.20
2018-06-08T12:24:29.436Z,130.07
2018-06-08T12:26:32.591Z,123.43
2018-06-08T12:28:35.736Z,149.87
2018-06-08T12:30:38.875Z,118.93
2018-06-08T12:32:42.104Z,121.73
2018-06-08T12:34:45.268Z,139.23
2018-06-08T12:36:48.424Z,119.00
2018-06-08T12:38:51.584Z,115.77
2018-06-08T12:40:54.757Z,110.20
2018-06-08T12:42:57.867Z,113.67
2018-06-08T12:45:00.980Z,107.10
2018-06-08T12:47:04.128Z,110.47
2018-06-08T12:49:07.277Z,108.93
2018-06-08T12:51:10.436Z,129.13
2018-06-08T12:53:13.574Z,123.63
2018-06-08T12:55:16.716Z,108.50
2018-06-08T12:57:19.865Z,98.40
2018-06-08T12:59:23.556Z,116.90
2018-06-08T13:01:26.704Z,115.73
2018-06-08T13:03:29.829Z,113.37
2018-06-08T13:05:32.964Z,118.47
2018-06-08T13:07:36.104Z,110.27
2018-06-08T13:09:39.244Z,105.97
2018-06-08T13:11:42.360Z,103.87
2018-06-08T13:13:45.484Z,105.17
2018-06-08T13:15:48.644Z,112.30
2018-06-08T13:17:51.944Z,118.53
2018-06-08T13:19:55.081Z,109.70
2018-06-08T13:21:58.225Z,101.70
2018-06-08T13:24:01.164Z,101.03
2018-06-08T13:26:04.312Z,88.80
2018-06-08T13:28:07.531Z,88.70
2018-06-08T13:30:10.663Z,97.73
2018-06-08T13:32:13.799Z,97.80
2018-06-08T13:34:16.946Z,92.00
2018-06-08T13:36:20.088Z,88.03
2018-06-08T13:38:23.220Z,83.50
2018-06-08T13:40:26.356Z,74.80
2018-06-08T13:42:29.615Z,78.70
2018-06-08T13:44:32.831Z,73.50
2018-06-08T13:46:43.552Z,68.60
2018-06-08T13:48:46.782Z,67.27
2018-06-08T13:50:49.963Z,84.20
2018-06-08T13:52:53.192Z,81.73
2018-06-08T13:54:56.101Z,71.73
2018-06-08T13:56:59.220Z,72.93
2018-06-08T13:59:02.416Z,67.73
2018-06-08T14:01:05.612Z,71.07
2018-06-08T14:03:08.807Z,62.10
2018-06-08T14:05:11.719Z,70.93
2018-06-08T14:07:14.840Z,71.07
2018-06-08T14:09:17.960Z,68.97
2018-06-08T14:11:21.083Z,65.93
2018-06-08T14:13:24.220Z,63.77
2018-06-08T14:15:27.352Z,64.10
2018-06-08T14:17:30.532Z,77.00
2018-06-08T14:19:33.396Z,64.30
2018-06-08T14:21:36.571Z,66.50
2018-06-08T14:23:39.714Z,57.70
2018-06-08T14:25:42.857Z,57.33
2018-06-08T14:27:45.980Z,64.67
2018-06-08T14:29:49.120Z,71.33
2018-06-08T14:31:52.263Z,58.73
2018-06-08T14:33:55.399Z,55.70
2018-06-08T14:35:58.548Z,56.33
2018-06-08T14:38:01.716Z,63.33
2018-06-08T14:40:04.848Z,59.73
2018-06-08T14:42:07.979Z,59.63
2018-06-08T14:44:11.616Z,56.60
2018-06-08T14:46:14.568Z,59.10
2018-06-08T14:48:17.709Z,63.97
2018-06-08T14:50:20.848Z,61.97
2018-06-08T14:52:23.980Z,55.03
2018-06-08T14:54:27.223Z,64.23
2018-06-08T14:56:30.359Z,53.30
2018-06-08T14:58:33.514Z,60.97
2018-06-08T15:00:36.649Z,59.73
2018-06-08T15:02:39.816Z,48.27
2018-06-08T15:04:42.991Z,54.80
2018-06-08T15:06:46.072Z,52.60
2018-06-08T15:08:49.188Z,54.03
2018-06-08T15:10:52.423Z,46.00
2018-06-08T15:12:55.543Z,48.20
2018-06-08T15:14:58.716Z,52.57
2018-06-08T15:17:01.876Z,59.33
2018-06-08T15:19:05.030Z,64.13
2018-06-08T15:21:08.161Z,51.23
2018-06-08T15:23:11.332Z,46.77
2018-06-08T15:25:14.439Z,54.07
2018-06-08T15:27:17.415Z,51.83
2018-06-08T15:29:20.589Z,47.47
2018-06-08T15:31:23.674Z,56.63
2018-06-08T15:33:26.816Z,56.70
2018-06-08T15:35:30.005Z,51.83
2018-06-08T15:37:33.124Z,51.93
2018-06-08T15:39:36.311Z,47.97
2018-06-08T15:41:39.452Z,47.70
2018-06-08T15:43:42.577Z,57.50
2018-06-08T15:45:45.716Z,48.13
2018-06-08T15:47:48.849Z,53.83
2018-06-08T15:49:52.531Z,44.33
2018-06-08T15:51:55.668Z,45.80
2018-06-08T15:53:58.641Z,54.77
2018-06-08T15:56:01.804Z,50.10
2018-06-08T15:58:04.933Z,54.53
2018-06-08T16:00:08.056Z,45.20
2018-06-08T16:02:11.194Z,49.53
2018-06-08T16:04:14.083Z,44.23
2018-06-08T16:06:17.212Z,41.80
2018-06-08T16:08:20.355Z,46.17
2018-06-08T16:10:23.503Z,47.97
2018-06-08T16:12:26.636Z,50.17
2018-06-08T16:14:29.776Z,41.07
2018-06-08T16:16:32.951Z,44.57
2018-06-08T16:18:36.093Z,49.77
2018-06-08T16:20:39.822Z,42.40
2018-06-08T16:22:43.010Z,46.40
2018-06-08T16:24:46.104Z,42.43
2018-06-08T16:26:49.296Z,49.87
2018-06-08T16:28:52.433Z,48.93
2018-06-08T16:30:55.643Z,42.70
2018-06-08T16:32:58.888Z,40.93
2018-06-08T16:35:02.081Z,46.13
2018-06-08T16:37:05.472Z,44.07
2018-06-08T16:39:08.608Z,45.70
2018-06-08T16:41:11.756Z,58.60
2018-06-08T16:43:14.668Z,61.37
2018-06-08T16:45:17.813Z,45.47
2018-06-08T16:47:20.936Z,50.40
2018-06-08T16:49:24.080Z,46.37
2018-06-08T16:51:27.196Z,38.17
2018-06-08T16:53:30.336Z,43.77
2018-06-08T16:55:33.475Z,48.17
2018-06-08T16:57:36.624Z,41.07
2018-06-08T16:59:39.760Z,40.17
2018-06-08T17:01:42.885Z,41.17
2018-06-08T17:03:46.797Z,42.77
2018-06-08T17:05:49.933Z,42.93
2018-06-08T17:07:53.139Z,46.87
2018-06-08T17:09:56.272Z,44.60
2018-06-08T17:11:59.457Z,42.53
2018-06-08T17:14:02.440Z,41.80
2018-06-08T17:16:05.618Z,39.90
2018-06-08T17:18:08.749Z,39.20
2018-06-08T17:20:11.868Z,35.10
2018-06-08T17:22:15.052Z,50.43
2018-06-08T17:24:18.216Z,40.33
2018-06-08T17:26:21.360Z,34.63
2018-06-08T17:28:24.496Z,36.53
2018-06-08T17:30:27.657Z,33.67
2018-06-08T17:32:30.923Z,41.37
2018-06-08T17:34:33.898Z,35.60
2018-06-08T17:36:36.826Z,35.40
2018-06-08T17:38:40.067Z,32.97
2018-06-08T17:40:43.091Z,44.20
2018-06-08T17:42:46.255Z,36.00
2018-06-08T17:44:49.396Z,42.70
2018-06-08T17:46:52.532Z,37.83
2018-06-08T17:48:55.665Z,37.27
2018-06-08T17:50:58.811Z,41.63
2018-06-08T17:53:02.548Z,37.90
2018-06-08T17:55:05.736Z,44.53
2018-06-08T17:57:08.935Z,33.30
2018-06-08T17:59:12.024Z,42.20
2018-06-08T18:01:15.188Z,37.43
2018-06-08T18:03:18.341Z,42.77
2018-06-08T18:05:21.473Z,44.47
2018-06-08T18:07:24.662Z,45.27
2018-06-08T18:09:27.850Z,43.00
2018-06-08T18:11:31.032Z,43.03
2018-06-08T18:13:34.228Z,54.77
2018-06-08T18:15:37.388Z,40.63
2018-06-08T18:17:40.656Z,40.40
2018-06-08T18:19:43.730Z,59.40
2018-06-08T18:21:46.867Z,51.13
2018-06-08T18:23:50.022Z,52.40
2018-06-08T18:25:54.147Z,44.20
2018-06-08T18:27:57.303Z,48.30
2018-06-08T18:30:00.448Z,61.40
2018-06-08T18:32:03.698Z,58.90
2018-06-08T18:34:06.920Z,52.50
2018-06-08T18:36:10.084Z,57.03
2018-06-08T18:38:13.239Z,48.80
2018-06-08T18:40:16.412Z,57.53
2018-06-08T18:42:19.579Z,56.10
2018-06-08T18:44:22.716Z,70.70
2018-06-08T18:46:25.886Z,60.73
2018-06-08T18:48:29.024Z,62.10
2018-06-08T18:50:32.181Z,65.43
2018-06-08T18:52:35.328Z,64.53
2018-06-08T18:54:38.456Z,64.30
2018-06-08T18:56:41.604Z,66.33
2018-06-08T18:58:44.759Z,71.33
2018-06-08T19:00:47.900Z,61.03
2018-06-08T19:02:51.068Z,61.53
2018-06-08T19:04:54.212Z,61.83
2018-06-08T19:06:57.355Z,76.20
2018-06-08T19:09:00.497Z,67.93
2018-06-08T19:11:03.648Z,67.23
2018-06-08T19:13:06.795Z,59.73
2018-06-08T19:15:09.932Z,59.17
2018-06-08T19:17:13.079Z,69.53
2018-06-08T19:19:16.263Z,67.27
2018-06-08T19:21:19.150Z,77.73
2018-06-08T19:23:22.392Z,69.00
2018-06-08T19:25:25.547Z,73.57
2018-06-08T19:27:28.698Z,78.80
2018-06-08T19:29:31.840Z,71.20
2018-06-08T19:31:34.975Z,65.47
2018-06-08T19:33:38.119Z,71.40
2018-06-08T19:35:41.281Z,69.43
2018-06-08T19:37:44.429Z,82.67
2018-06-08T19:39:47.580Z,72.73
2018-06-08T19:41:51.660Z,69.63
2018-06-08T19:43:54.775Z,71.50
2018-06-08T19:45:57.928Z,74.20
2018-06-08T19:48:01.085Z,76.30
2018-06-08T19:50:04.240Z,81.53
2018-06-08T19:52:07.676Z,78.87
2018-06-08T19:54:10.928Z,76.43
2018-06-08T19:56:14.051Z,77.37
2018-06-08T19:58:17.210Z,85.57
2018-06-08T20:00:20.352Z,79.13
2018-06-08T20:02:23.540Z,81.63
2018-06-08T20:04:26.684Z,87.50
2018-06-08T20:06:29.812Z,87.10
2018-06-08T20:08:32.965Z,89.63
2018-06-08T20:10:36.103Z,90.10
2018-06-08T20:12:39.264Z,88.03
2018-06-08T20:14:42.392Z,86.53
2018-06-08T20:16:45.536Z,86.40
2018-06-08T20:18:48.747Z,101.63
2018-06-08T20:20:51.932Z,105.23
2018-06-08T20:22:55.061Z,100.13
2018-06-08T20:24:58.224Z,100.97
2018-06-08T20:27:01.434Z,107.17
2018-06-08T20:29:04.571Z,96.23
2018-06-08T20:31:07.724Z,95.77
2018-06-08T20:33:10.987Z,99.87
2018-06-08T20:35:14.951Z,106.50
2018-06-08T20:37:18.100Z,111.37
2018-06-08T20:39:21.223Z,110.90
2018-06-08T20:41:24.383Z,101.67
2018-06-08T20:43:27.599Z,113.83
2018-06-08T20:45:30.788Z,113.23
2018-06-08T20:47:33.912Z,98.80
2018-06-08T20:49:37.043Z,105.37
2018-06-08T20:51:40.190Z,99.53
2018-06-08T20:53:43.315Z,104.10
2018-06-08T20:55:46.496Z,91.40
2018-06-08T20:58:00.097Z,91.77
2018-06-08T21:00:03.283Z,89.00
2018-06-08T21:02:06.957Z,86.37
2018-06-08T21:04:10.032Z,88.40
2018-06-08T21:06:13.172Z,76.10
2018-06-08T21:08:16.336Z,86.83
2018-06-08T21:10:19.503Z,75.67
2018-06-08T21:12:22.467Z,65.47
2018-06-08T21:14:25.612Z,68.37
2018-06-08T21:16:28.770Z,69.30
2018-06-08T21:18:31.676Z,65.33
2018-06-08T21:20:34.891Z,66.73
2018-06-08T21:22:38.067Z,60.80
2018-06-08T21:24:41.189Z,79.30
2018-06-08T21:26:44.360Z,64.90
2018-06-08T21:28:47.508Z,59.53
2018-06-08T21:30:50.645Z,51.70
2018-06-08T21:32:53.569Z,45.53
2018-06-08T21:34:56.709Z,48.33
2018-06-08T21:36:59.863Z,41.20
2018-06-08T21:39:03.033Z,47.13
2018-06-08T21:41:06.206Z,46.13
2018-06-08T21:43:09.331Z,51.13
2018-06-08T21:45:12.503Z,37.47
2018-06-08T21:47:15.633Z,52.40
2018-06-08T21:49:18.768Z,47.83
2018-06-08T21:51:21.989Z,42.70
2018-06-08T21:53:25.132Z,47.40
2018-06-08T21:55:28.315Z,49.03
2018-06-08T21:57:31.498Z,52.57
2018-06-08T21:59:34.617Z,56.77
2018-06-08T22:01:37.769Z,52.93
2018-06-08T22:03:41.027Z,59.73
2018-06-08T22:05:44.156Z,68.30
2018-06-08T22:07:47.344Z,58.13
2018-06-08T22:09:50.468Z,77.80
2018-06-08T22:11:53.620Z,58.63
2018-06-08T22:13:56.832Z,77.87
2018-06-08T22:15:59.973Z,68.47
2018-06-08T22:18:03.108Z,73.13
2018-06-08T22:20:06.267Z,65.50
2018-06-08T22:22:09.542Z,66.50
2018-06-08T22:24:12.670Z,63.97
2018-06-08T22:26:15.889Z,61.80
2018-06-08T22:28:18.973Z,60.27
2018-06-08T22:30:22.122Z,59.77
2018-06-08T22:32:25.340Z,52.57
2018-06-08T22:34:28.484Z,51.60
2018-06-08T22:36:31.608Z,56.90
2018-06-08T22:38:34.756Z,68.00
2018-06-08T22:40:37.906Z,47.07
2018-06-08T22:42:41.044Z,54.80
2018-06-08T22:44:44.196Z,50.27
2018-06-08T22:46:47.332Z,47.70
2018-06-08T22:48:50.492Z,54.77
2018-06-08T22:50:53.643Z,55.80
2018-06-08T22:52:56.803Z,51.70
2018-06-08T22:54:59.933Z,54.60
2018-06-08T22:57:03.172Z,61.10
2018-06-08T22:59:06.311Z,57.73
2018-06-08T23:01:09.440Z,76.20
2018-06-08T23:03:12.589Z,65.20
2018-06-08T23:05:15.737Z,57.57
2018-06-08T23:07:18.877Z,62.53
2018-06-08T23:09:22.017Z,54.90
2018-06-08T23:11:25.255Z,55.40
2018-06-08T23:13:28.344Z,56.03
2018-06-08T23:18:05.078Z,52.00
2018-06-08T23:20:08.201Z,51.03
2018-06-08T23:22:11.310Z,49.57
2018-06-08T23:24:14.433Z,60.33
2018-06-08T23:26:17.552Z,40.00
2018-06-08T23:28:20.661Z,42.77
2018-06-08T23:30:23.790Z,57.07
2018-06-08T23:32:26.911Z,37.10
2018-06-08T23:34:30.072Z,48.73
2018-06-08T23:36:33.175Z,42.83
2018-06-08T23:38:36.285Z,38.37
2018-06-08T23:40:39.424Z,40.93
2018-06-08T23:42:42.548Z,43.10
2018-06-08T23:44:45.688Z,29.60
2018-06-08T23:46:48.824Z,33.97
2018-06-08T23:48:51.960Z,32.17
2018-06-08T23:50:55.111Z,29.53
2018-06-08T23:52:58.252Z,32.40
2018-06-08T23:55:01.397Z,37.37
2018-06-08T23:57:04.708Z,37.30
2018-06-08T23:59:07.848Z,37.13
